createdAt,value
2018-03-22T00:02:20.616Z,2.80
2018-03-22T00:04:47.031Z,2.80
2018-03-22T00:07:13.788Z,2.80
2018-03-22T00:09:39.827Z,2.80
2018-03-22T00:12:05.842Z,2.80
2018-03-22T00:14:32.624Z,2.80
2018-03-22T00:16:58.676Z,2.80
2018-03-22T00:19:24.740Z,2.80
2018-03-22T00:21:50.898Z,2.80
2018-03-22T00:24:16.956Z,2.80
2018-03-22T00:26:43.717Z,2.80
2018-03-22T00:29:10.515Z,2.80
2018-03-22T00:31:36.801Z,2.80
2018-03-22T00:34:02.891Z,2.80
2018-03-22T00:36:28.932Z,2.80
2018-03-22T00:38:54.982Z,2.80
2018-03-22T00:41:21.021Z,2.80
2018-03-22T00:43:47.037Z,2.70
2018-03-22T00:46:13.072Z,2.70
2018-03-22T00:48:46.128Z,2.80
2018-03-22T00:51:19.886Z,2.80
2018-03-22T00:53:45.971Z,2.70
2018-03-22T00:56:12.031Z,2.70
2018-03-22T00:58:38.074Z,2.70
2018-03-22T01:01:04.163Z,2.70
2018-03-22T01:03:30.182Z,2.70
2018-03-22T01:05:56.207Z,2.70
2018-03-22T01:08:22.244Z,2.70
2018-03-22T01:10:48.271Z,2.70
2018-03-22T01:13:14.310Z,2.80
2018-03-22T01:15:40.358Z,2.70
2018-03-22T01:18:06.392Z,2.70
2018-03-22T01:20:32.411Z,2.70
2018-03-22T01:22:58.733Z,2.70
2018-03-22T01:25:25.497Z,2.70
2018-03-22T01:27:51.525Z,2.70
2018-03-22T01:30:30.572Z,2.70
2018-03-22T01:32:56.605Z,2.70
2018-03-22T01:35:23.367Z,2.60
2018-03-22T01:37:49.688Z,2.60
2018-03-22T01:40:16.475Z,2.50
2018-03-22T01:42:42.535Z,2.50
2018-03-22T01:45:08.619Z,2.40
2018-03-22T01:47:34.619Z,2.40
2018-03-22T01:50:00.682Z,2.30
2018-03-22T01:52:26.716Z,2.20
2018-03-22T01:54:52.788Z,2.10
2018-03-22T01:57:18.917Z,1.90
2018-03-22T01:59:45.724Z,1.50
2018-03-22T02:02:11.753Z,1.50
2018-03-22T02:04:37.758Z,1.40
2018-03-22T02:07:03.804Z,1.30
2018-03-22T02:09:29.827Z,1.30
2018-03-22T02:11:55.909Z,1.20
2018-03-22T02:14:21.947Z,1.10
2018-03-22T02:16:47.950Z,1.10
2018-03-22T02:19:14.009Z,1.00
2018-03-22T02:21:40.029Z,1.00
2018-03-22T02:24:06.028Z,0.90
2018-03-22T02:26:32.826Z,0.90
2018-03-22T02:28:58.871Z,0.90
2018-03-22T02:31:24.894Z,0.90
2018-03-22T02:33:50.968Z,0.90
2018-03-22T02:36:16.976Z,1.00
2018-03-22T02:38:43.763Z,1.10
2018-03-22T02:41:09.824Z,1.00
2018-03-22T02:43:35.875Z,1.10
2018-03-22T02:46:01.902Z,1.20
2018-03-22T02:48:28.663Z,1.20
2018-03-22T02:50:54.715Z,1.20
2018-03-22T02:53:20.774Z,1.20
2018-03-22T02:55:46.854Z,1.20
2018-03-22T02:58:13.678Z,1.30
2018-03-22T03:00:39.675Z,1.20
2018-03-22T03:03:05.685Z,1.30
2018-03-22T03:05:32.483Z,1.20
2018-03-22T03:07:58.535Z,1.20
2018-03-22T03:10:24.574Z,1.20
2018-03-22T03:12:50.665Z,1.20
2018-03-22T03:15:16.699Z,1.20
2018-03-22T03:17:43.456Z,1.20
2018-03-22T03:20:09.491Z,1.20
2018-03-22T03:22:35.508Z,1.20
2018-03-22T03:25:02.273Z,1.30
2018-03-22T03:27:28.324Z,1.20
2018-03-22T03:29:55.078Z,1.20
2018-03-22T03:32:21.183Z,1.20
2018-03-22T03:34:47.235Z,1.20
2018-03-22T03:37:14.007Z,1.30
2018-03-22T03:39:40.089Z,1.20
2018-03-22T03:42:06.163Z,1.20
2018-03-22T03:44:32.955Z,1.20
2018-03-22T03:46:59.223Z,1.20
2018-03-22T03:49:25.263Z,1.20
2018-03-22T03:51:51.327Z,1.20
2018-03-22T03:54:18.115Z,1.20
2018-03-22T03:56:44.115Z,1.10
2018-03-22T03:59:10.887Z,1.10
2018-03-22T04:01:36.935Z,1.10
2018-03-22T04:04:02.977Z,1.10
2018-03-22T04:06:29.001Z,1.10
2018-03-22T04:08:55.061Z,0.90
2018-03-22T04:11:21.084Z,0.90
2018-03-22T04:13:47.087Z,0.80
2018-03-22T04:16:13.874Z,0.80
2018-03-22T04:18:39.899Z,0.80
2018-03-22T04:21:05.926Z,0.80
2018-03-22T04:23:31.947Z,0.80
2018-03-22T04:25:57.958Z,0.80
2018-03-22T04:28:24.030Z,0.90
2018-03-22T04:30:50.046Z,0.90
2018-03-22T04:33:16.830Z,1.00
2018-03-22T04:35:42.869Z,1.00
2018-03-22T04:38:08.880Z,1.00
2018-03-22T04:40:35.637Z,1.10
2018-03-22T04:43:01.658Z,1.10
2018-03-22T04:45:28.445Z,1.20
2018-03-22T04:47:54.474Z,1.20
2018-03-22T04:50:20.506Z,1.20
2018-03-22T04:52:46.526Z,1.20
2018-03-22T04:55:13.299Z,1.30
2018-03-22T04:57:39.327Z,1.30
2018-03-22T05:00:05.337Z,1.40
2018-03-22T05:02:31.375Z,1.40
2018-03-22T05:04:57.388Z,1.40
2018-03-22T05:07:23.409Z,1.40
2018-03-22T05:09:49.442Z,1.50
2018-03-22T05:12:15.456Z,1.50
2018-03-22T05:14:41.472Z,1.50
2018-03-22T05:17:07.704Z,1.60
2018-03-22T05:19:34.467Z,1.70
2018-03-22T05:22:01.593Z,1.70
2018-03-22T05:24:27.744Z,1.70
2018-03-22T05:26:53.880Z,1.70
2018-03-22T05:29:19.892Z,1.70
2018-03-22T05:31:45.947Z,1.80
2018-03-22T05:34:11.985Z,1.80
2018-03-22T05:36:38.039Z,1.80
2018-03-22T05:39:04.933Z,1.90
2018-03-22T05:41:31.018Z,1.80
2018-03-22T05:43:57.067Z,1.90
2018-03-22T05:46:23.850Z,1.90
2018-03-22T05:48:49.897Z,1.90
2018-03-22T05:51:15.920Z,2.00
2018-03-22T05:53:41.976Z,2.00
2018-03-22T05:56:08.018Z,2.00
2018-03-22T05:58:34.054Z,2.00
2018-03-22T06:01:00.134Z,2.10
2018-03-22T06:03:26.302Z,2.10
2018-03-22T06:05:52.337Z,2.10
2018-03-22T06:08:18.388Z,2.10
2018-03-22T06:10:44.409Z,2.10
2018-03-22T06:13:10.443Z,2.10
2018-03-22T06:15:37.216Z,2.20
2018-03-22T06:18:03.254Z,2.20
2018-03-22T06:20:29.419Z,2.20
2018-03-22T06:22:55.530Z,2.20
2018-03-22T06:25:21.581Z,2.20
2018-03-22T06:27:47.616Z,2.30
2018-03-22T06:30:13.675Z,2.30
2018-03-22T06:32:39.751Z,2.30
2018-03-22T06:35:05.828Z,2.30
2018-03-22T06:37:31.891Z,2.30
2018-03-22T06:39:58.015Z,2.30
2018-03-22T06:42:24.106Z,2.40
2018-03-22T06:44:50.151Z,2.40
2018-03-22T06:47:16.927Z,2.40
2018-03-22T06:49:42.995Z,2.40
2018-03-22T06:52:09.056Z,2.50
2018-03-22T06:54:35.099Z,2.50
2018-03-22T06:57:01.195Z,2.50
2018-03-22T06:59:27.184Z,2.60
2018-03-22T07:01:54.351Z,2.60
2018-03-22T07:04:21.122Z,2.60
2018-03-22T07:06:47.248Z,2.60
2018-03-22T07:09:14.082Z,2.70
2018-03-22T07:11:40.112Z,2.70
2018-03-22T07:14:06.130Z,2.70
2018-03-22T07:16:32.237Z,2.70
2018-03-22T07:18:58.397Z,2.80
2018-03-22T07:21:24.471Z,2.80
2018-03-22T07:23:51.304Z,2.90
2018-03-22T07:26:17.348Z,2.90
2018-03-22T07:28:43.375Z,3.00
2018-03-22T07:31:09.416Z,3.00
2018-03-22T07:33:35.456Z,3.10
2018-03-22T07:36:01.495Z,3.10
2018-03-22T07:38:27.706Z,3.10
2018-03-22T07:40:53.755Z,3.20
2018-03-22T07:43:25.788Z,3.20
2018-03-22T07:45:52.600Z,3.30
2018-03-22T07:48:18.659Z,3.30
2018-03-22T07:50:44.731Z,3.30
2018-03-22T07:53:10.819Z,3.40
2018-03-22T07:55:36.891Z,3.40
2018-03-22T07:58:02.939Z,3.40
2018-03-22T08:00:29.006Z,3.50
2018-03-22T08:02:59.821Z,3.50
2018-03-22T08:05:25.966Z,3.50
2018-03-22T08:07:52.021Z,3.50
2018-03-22T08:10:18.071Z,3.50
2018-03-22T08:12:44.273Z,3.60
2018-03-22T08:15:10.321Z,3.60
2018-03-22T08:17:36.337Z,3.60
2018-03-22T08:20:03.123Z,3.70
2018-03-22T08:22:29.832Z,3.70
2018-03-22T08:24:56.611Z,3.70
2018-03-22T08:27:22.713Z,3.70
2018-03-22T08:29:48.782Z,3.70
2018-03-22T08:32:14.839Z,3.70
2018-03-22T08:34:40.901Z,3.80
2018-03-22T08:37:07.089Z,3.90
2018-03-22T08:39:33.849Z,3.90
2018-03-22T08:42:00.625Z,3.90
2018-03-22T08:44:26.695Z,3.90
2018-03-22T08:46:52.713Z,4.00
2018-03-22T08:49:18.738Z,4.10
2018-03-22T08:51:44.762Z,4.00
2018-03-22T08:54:10.842Z,4.10
2018-03-22T08:56:36.920Z,4.10
2018-03-22T08:59:02.942Z,4.20
2018-03-22T09:01:28.983Z,4.20
2018-03-22T09:03:55.853Z,4.30
2018-03-22T09:06:21.951Z,4.20
2018-03-22T09:08:48.001Z,4.40
2018-03-22T09:11:14.177Z,4.40
2018-03-22T09:13:40.256Z,4.40
2018-03-22T09:16:06.330Z,4.40
2018-03-22T09:18:33.122Z,4.50
2018-03-22T09:20:59.206Z,4.50
2018-03-22T09:23:26.094Z,4.40
2018-03-22T09:25:52.278Z,4.50
2018-03-22T09:28:18.345Z,4.50
2018-03-22T09:30:44.465Z,4.50
2018-03-22T09:33:10.534Z,4.50
2018-03-22T09:35:37.302Z,4.50
2018-03-22T09:38:03.352Z,4.50
2018-03-22T09:40:29.448Z,4.60
2018-03-22T09:42:55.506Z,4.60
2018-03-22T09:45:22.348Z,4.70
2018-03-22T09:47:49.419Z,4.70
2018-03-22T09:50:16.177Z,4.70
2018-03-22T09:52:42.937Z,4.80
2018-03-22T09:55:08.972Z,4.70
2018-03-22T09:57:35.025Z,4.80
2018-03-22T10:00:02.053Z,4.80
2018-03-22T10:02:28.851Z,4.90
2018-03-22T10:04:54.901Z,4.90
2018-03-22T10:07:21.160Z,4.90
2018-03-22T10:09:47.278Z,5.00
2018-03-22T10:12:13.332Z,5.00
2018-03-22T10:14:39.406Z,5.00
2018-03-22T10:17:06.197Z,5.20
2018-03-22T10:19:32.252Z,5.20
2018-03-22T10:21:58.675Z,5.20
2018-03-22T10:24:24.754Z,5.20
2018-03-22T10:26:50.782Z,5.30
2018-03-22T10:29:16.892Z,5.30
2018-03-22T10:31:42.924Z,5.30
2018-03-22T10:34:08.951Z,5.30
2018-03-22T10:36:35.019Z,5.40
2018-03-22T10:39:01.055Z,5.50
2018-03-22T10:41:27.091Z,5.50
2018-03-22T10:43:53.136Z,5.60
2018-03-22T10:46:19.159Z,5.70
2018-03-22T10:48:45.187Z,5.60
2018-03-22T10:51:11.355Z,5.80
2018-03-22T10:53:37.383Z,5.90
2018-03-22T10:56:03.447Z,6.00
2018-03-22T10:58:29.492Z,6.00
2018-03-22T11:01:02.505Z,6.00
2018-03-22T11:03:29.326Z,6.10
2018-03-22T11:05:56.339Z,6.20
2018-03-22T11:08:29.447Z,6.20
2018-03-22T11:10:55.503Z,6.20
2018-03-22T11:13:21.518Z,6.10
2018-03-22T11:15:47.722Z,6.10
2018-03-22T11:18:14.511Z,6.10
2018-03-22T11:20:40.534Z,6.10
2018-03-22T11:23:06.575Z,6.00
2018-03-22T11:25:32.635Z,6.00
2018-03-22T11:27:58.748Z,6.20
2018-03-22T11:30:25.066Z,6.20
2018-03-22T11:32:51.823Z,6.20
2018-03-22T11:35:17.879Z,6.20
2018-03-22T11:37:43.955Z,6.30
2018-03-22T11:40:10.050Z,6.30
2018-03-22T11:42:36.051Z,6.40
2018-03-22T11:45:02.108Z,6.40
2018-03-22T11:47:28.886Z,6.40
2018-03-22T11:49:54.899Z,6.40
2018-03-22T11:52:21.675Z,6.40
2018-03-22T11:54:47.715Z,6.40
2018-03-22T11:57:13.724Z,6.60
2018-03-22T11:59:40.486Z,6.70
2018-03-22T12:02:07.258Z,6.80
2018-03-22T12:04:33.278Z,6.80
2018-03-22T12:06:59.357Z,7.10
2018-03-22T12:09:25.441Z,7.00
2018-03-22T12:11:52.325Z,6.80
2018-03-22T12:14:18.435Z,6.80
2018-03-22T12:16:45.187Z,6.70
2018-03-22T12:19:11.940Z,6.60
2018-03-22T12:21:38.748Z,6.60
2018-03-22T12:24:04.747Z,6.50
2018-03-22T12:26:31.516Z,6.50
2018-03-22T12:28:58.660Z,6.50
2018-03-22T12:31:25.420Z,6.70
2018-03-22T12:33:51.427Z,6.70
2018-03-22T12:36:17.451Z,6.80
2018-03-22T12:38:43.480Z,6.60
2018-03-22T12:41:09.487Z,6.30
2018-03-22T12:43:35.521Z,6.30
2018-03-22T12:46:01.527Z,6.30
2018-03-22T12:48:35.213Z,6.10
2018-03-22T12:51:01.251Z,6.10
2018-03-22T12:53:27.327Z,6.10
2018-03-22T12:55:53.385Z,6.00
2018-03-22T12:58:19.470Z,6.00
2018-03-22T13:00:45.517Z,6.10
2018-03-22T13:03:11.654Z,6.20
2018-03-22T13:05:37.680Z,6.20
2018-03-22T13:08:03.780Z,6.10
2018-03-22T13:10:29.948Z,6.10
2018-03-22T13:12:56.034Z,6.00
2018-03-22T13:15:22.063Z,5.90
2018-03-22T13:17:48.898Z,6.10
2018-03-22T13:20:15.734Z,6.10
2018-03-22T13:22:41.873Z,6.00
2018-03-22T13:25:08.203Z,6.10
2018-03-22T13:27:34.226Z,6.10
2018-03-22T13:30:00.295Z,6.30
2018-03-22T13:32:26.368Z,6.30
2018-03-22T13:34:52.406Z,6.20
2018-03-22T13:37:19.161Z,6.00
2018-03-22T13:39:45.262Z,5.90
2018-03-22T13:42:11.351Z,6.00
2018-03-22T13:44:37.396Z,5.90
2018-03-22T13:47:03.442Z,5.90
2018-03-22T13:49:29.511Z,5.80
2018-03-22T13:51:56.290Z,6.00
2018-03-22T13:54:22.321Z,6.00
2018-03-22T13:56:48.437Z,5.90
2018-03-22T13:59:14.525Z,5.80
2018-03-22T14:01:40.581Z,5.80
2018-03-22T14:04:06.617Z,5.80
2018-03-22T14:06:32.648Z,5.80
2018-03-22T14:08:58.735Z,5.80
2018-03-22T14:11:24.786Z,5.80
2018-03-22T14:13:51.724Z,5.90
2018-03-22T14:16:17.782Z,5.90
2018-03-22T14:18:44.543Z,5.80
2018-03-22T14:21:10.557Z,5.80
2018-03-22T14:23:36.651Z,5.70
2018-03-22T14:26:02.724Z,5.70
2018-03-22T14:28:28.794Z,5.70
2018-03-22T14:30:54.814Z,5.80
2018-03-22T14:33:21.615Z,5.80
2018-03-22T14:35:47.672Z,5.70
2018-03-22T14:38:13.706Z,5.80
2018-03-22T14:40:46.779Z,5.80
2018-03-22T14:43:12.862Z,5.80
2018-03-22T14:45:38.909Z,5.80
2018-03-22T14:48:05.973Z,5.70
2018-03-22T14:50:32.015Z,5.70
2018-03-22T14:52:58.795Z,5.70
2018-03-22T14:55:24.835Z,5.70
2018-03-22T14:57:50.863Z,5.60
2018-03-22T15:00:16.905Z,5.50
2018-03-22T15:02:42.942Z,5.40
2018-03-22T15:05:08.979Z,5.40
2018-03-22T15:07:35.009Z,5.30
2018-03-22T15:10:01.043Z,5.30
2018-03-22T15:12:27.084Z,5.30
2018-03-22T15:14:53.203Z,5.30
2018-03-22T15:17:19.994Z,5.20
2018-03-22T15:19:46.015Z,5.20
2018-03-22T15:22:12.039Z,5.20
2018-03-22T15:24:38.196Z,5.20
2018-03-22T15:27:04.219Z,5.10
2018-03-22T15:29:30.271Z,5.10
2018-03-22T15:31:56.334Z,5.20
2018-03-22T15:34:22.449Z,5.10
2018-03-22T15:36:48.509Z,5.20
2018-03-22T15:39:14.540Z,5.10
2018-03-22T15:41:40.633Z,5.10
2018-03-22T15:44:07.478Z,5.10
2018-03-22T15:46:34.222Z,5.10
2018-03-22T15:49:00.292Z,5.10
2018-03-22T15:51:26.440Z,5.10
2018-03-22T15:53:52.464Z,5.10
2018-03-22T15:56:18.554Z,5.10
2018-03-22T15:58:44.681Z,5.10
2018-03-22T16:01:10.723Z,5.10
2018-03-22T16:03:36.750Z,5.10
2018-03-22T16:06:03.139Z,5.10
2018-03-22T16:08:29.927Z,5.10
2018-03-22T16:10:55.980Z,5.10
2018-03-22T16:13:22.023Z,5.20
2018-03-22T16:15:48.078Z,5.20
2018-03-22T16:18:14.173Z,5.10
2018-03-22T16:20:41.092Z,5.10
2018-03-22T16:23:07.119Z,5.10
2018-03-22T16:25:33.197Z,5.00
2018-03-22T16:27:59.998Z,5.10
2018-03-22T16:30:26.027Z,5.10
2018-03-22T16:32:52.062Z,5.00
2018-03-22T16:35:18.067Z,5.00
2018-03-22T16:37:44.080Z,4.90
2018-03-22T16:40:10.174Z,5.00
2018-03-22T16:42:36.930Z,5.10
2018-03-22T16:45:03.715Z,5.00
2018-03-22T16:47:30.483Z,5.10
2018-03-22T16:49:57.236Z,5.10
2018-03-22T16:52:23.275Z,5.10
2018-03-22T16:54:49.360Z,5.10
2018-03-22T16:57:15.375Z,5.10
2018-03-22T16:59:41.415Z,5.10
2018-03-22T17:02:08.986Z,5.00
2018-03-22T17:04:35.047Z,5.00
2018-03-22T17:07:01.143Z,4.90
2018-03-22T17:09:27.177Z,4.90
2018-03-22T17:11:53.212Z,4.80
2018-03-22T17:14:19.264Z,4.80
2018-03-22T17:16:45.284Z,4.70
2018-03-22T17:19:11.307Z,4.80
2018-03-22T17:21:38.125Z,4.70
2018-03-22T17:24:04.167Z,4.70
2018-03-22T17:26:30.234Z,4.70
2018-03-22T17:28:57.181Z,4.60
2018-03-22T17:31:23.959Z,4.60
2018-03-22T17:33:49.978Z,4.60
2018-03-22T17:36:16.373Z,4.50
2018-03-22T17:38:42.411Z,4.60
2018-03-22T17:41:08.434Z,4.50
2018-03-22T17:43:34.477Z,4.50
2018-03-22T17:46:00.618Z,4.50
2018-03-22T17:48:26.702Z,4.50
2018-03-22T17:50:53.555Z,4.40
2018-03-22T17:53:19.648Z,4.40
2018-03-22T17:55:45.740Z,4.40
2018-03-22T17:58:13.251Z,4.40
2018-03-22T18:00:39.305Z,4.40
2018-03-22T18:03:05.416Z,4.30
2018-03-22T18:05:31.430Z,4.30
2018-03-22T18:07:58.199Z,4.30
2018-03-22T18:10:24.195Z,4.30
2018-03-22T18:12:50.223Z,4.30
2018-03-22T18:15:16.336Z,4.30
2018-03-22T18:17:42.367Z,4.30
2018-03-22T18:20:08.396Z,4.30
2018-03-22T18:22:34.416Z,4.30
2018-03-22T18:25:00.671Z,4.20
2018-03-22T18:27:26.720Z,4.20
2018-03-22T18:29:52.758Z,4.20
2018-03-22T18:32:18.783Z,4.10
2018-03-22T18:34:44.823Z,4.00
2018-03-22T18:37:12.608Z,3.90
2018-03-22T18:39:38.639Z,3.90
2018-03-22T18:42:04.681Z,3.90
2018-03-22T18:44:30.720Z,3.90
2018-03-22T18:46:56.774Z,3.90
2018-03-22T18:49:23.519Z,3.90
2018-03-22T18:51:49.534Z,3.80
2018-03-22T18:54:15.939Z,3.80
2018-03-22T18:56:42.709Z,3.70
2018-03-22T18:59:08.722Z,3.70
2018-03-22T19:01:34.751Z,3.70
2018-03-22T19:04:00.769Z,3.70
2018-03-22T19:06:26.830Z,3.70
2018-03-22T19:08:53.745Z,3.70
2018-03-22T19:11:19.772Z,3.70
2018-03-22T19:13:45.798Z,3.70
2018-03-22T19:16:11.916Z,3.70
2018-03-22T19:18:38.008Z,3.70
2018-03-22T19:21:04.029Z,3.70
2018-03-22T19:23:30.400Z,3.70
2018-03-22T19:25:56.687Z,3.70
2018-03-22T19:28:22.771Z,3.70
2018-03-22T19:30:48.815Z,3.70
2018-03-22T19:33:14.837Z,3.70
2018-03-22T19:35:40.879Z,3.70
2018-03-22T19:38:07.301Z,3.70
2018-03-22T19:40:34.214Z,3.70
2018-03-22T19:43:00.397Z,3.70
2018-03-22T19:45:26.694Z,3.70
2018-03-22T19:47:52.716Z,3.70
2018-03-22T19:50:18.746Z,3.70
2018-03-22T19:52:45.043Z,3.70
2018-03-22T19:55:11.149Z,3.70
2018-03-22T19:57:37.171Z,3.70
2018-03-22T20:00:03.446Z,3.60
2018-03-22T20:02:30.288Z,3.60
2018-03-22T20:04:57.059Z,3.60
2018-03-22T20:07:23.144Z,3.60
2018-03-22T20:09:49.291Z,3.60
2018-03-22T20:12:15.358Z,3.60
2018-03-22T20:14:41.447Z,3.60
2018-03-22T20:17:07.549Z,3.60
2018-03-22T20:19:37.532Z,3.60
2018-03-22T20:22:04.351Z,3.60
2018-03-22T20:24:30.404Z,3.60
2018-03-22T20:26:56.435Z,3.60
2018-03-22T20:29:22.449Z,3.60
2018-03-22T20:31:48.778Z,3.50
2018-03-22T20:34:15.584Z,3.50
2018-03-22T20:36:41.582Z,3.50
2018-03-22T20:39:08.380Z,3.50
2018-03-22T20:41:35.135Z,3.50
2018-03-22T20:44:01.362Z,3.50
2018-03-22T20:46:27.419Z,3.50
2018-03-22T20:48:53.428Z,3.50
2018-03-22T20:51:19.515Z,3.50
2018-03-22T20:53:45.544Z,3.40
2018-03-22T20:56:11.602Z,3.40
2018-03-22T20:58:38.383Z,3.50
2018-03-22T21:01:04.402Z,3.50
2018-03-22T21:03:31.186Z,3.40
2018-03-22T21:05:57.247Z,3.40
2018-03-22T21:08:23.264Z,3.40
2018-03-22T21:10:49.323Z,3.40
2018-03-22T21:13:15.361Z,3.40
2018-03-22T21:15:41.360Z,3.40
2018-03-22T21:18:09.496Z,3.40
2018-03-22T21:20:35.499Z,3.40
2018-03-22T21:23:01.519Z,3.40
2018-03-22T21:25:27.571Z,3.30
2018-03-22T21:27:53.605Z,3.30
2018-03-22T21:30:19.639Z,3.30
2018-03-22T21:32:45.655Z,3.20
2018-03-22T21:35:11.728Z,3.20
2018-03-22T21:37:37.780Z,3.20
2018-03-22T21:40:03.805Z,3.30
2018-03-22T21:42:29.878Z,3.20
2018-03-22T21:44:56.701Z,3.30
2018-03-22T21:47:28.809Z,3.30
2018-03-22T21:49:54.843Z,3.20
2018-03-22T21:52:33.156Z,3.20
2018-03-22T21:54:59.219Z,3.20
2018-03-22T21:57:25.991Z,3.30
2018-03-22T21:59:51.992Z,3.30
2018-03-22T22:02:18.752Z,3.20
2018-03-22T22:04:45.500Z,3.20
2018-03-22T22:07:11.537Z,3.20
2018-03-22T22:09:37.551Z,3.20
2018-03-22T22:12:03.604Z,3.20
2018-03-22T22:14:29.651Z,3.10
2018-03-22T22:16:56.400Z,3.10
2018-03-22T22:19:23.158Z,3.10
2018-03-22T22:21:49.900Z,3.20
2018-03-22T22:24:15.890Z,3.10
2018-03-22T22:26:41.910Z,3.20
2018-03-22T22:29:07.933Z,3.10
2018-03-22T22:31:34.675Z,3.00
2018-03-22T22:34:01.451Z,3.00
2018-03-22T22:36:27.489Z,3.00
2018-03-22T22:38:53.549Z,3.00
2018-03-22T22:41:19.586Z,3.00
2018-03-22T22:43:45.611Z,2.90
2018-03-22T22:46:11.636Z,2.90
2018-03-22T22:48:37.663Z,2.90
2018-03-22T22:51:03.668Z,2.90
2018-03-22T22:53:29.766Z,2.90
2018-03-22T22:55:55.829Z,2.90
2018-03-22T22:58:21.842Z,2.90
2018-03-22T23:00:47.862Z,2.90
2018-03-22T23:03:13.886Z,2.90
2018-03-22T23:05:39.904Z,2.80
2018-03-22T23:08:06.651Z,2.80
2018-03-22T23:10:33.584Z,2.80
2018-03-22T23:12:59.575Z,2.80
2018-03-22T23:15:25.587Z,2.80
2018-03-22T23:17:51.628Z,2.80
2018-03-22T23:20:18.391Z,2.70
2018-03-22T23:22:45.158Z,2.70
2018-03-22T23:25:11.222Z,2.60
2018-03-22T23:27:37.257Z,2.60
2018-03-22T23:30:04.011Z,2.70
2018-03-22T23:32:30.030Z,2.60
2018-03-22T23:34:56.050Z,2.70
2018-03-22T23:37:22.114Z,2.60
2018-03-22T23:39:48.132Z,2.60
2018-03-22T23:42:14.369Z,2.60
2018-03-22T23:44:40.599Z,2.60
2018-03-22T23:47:06.606Z,2.60
2018-03-22T23:49:32.650Z,2.60
2018-03-22T23:51:58.715Z,2.60
2018-03-22T23:54:24.740Z,2.60
2018-03-22T23:56:51.507Z,2.60
2018-03-22T23:59:17.543Z,2.60
